Terminal Aerodrome Forecast
Issued by NWS

Home | Current Version | Previous Version | Text Only | Print | Product List | Glossary On
Versions: 1 2 3 4 5 6 7 8 9 10 11 12 13 14 15 16 17
000
FTUS42 KTBW 292334
TAFPGD
TAF
KPGD 292334Z 3000/3024 09006KT P6SM VCSH SCT030 BKN100
     FM300300 09006KT P6SM SCT025 SCT100 BKN200
     FM301400 15007KT P6SM VCSH SCT025 BKN080 BKN200
      TEMPO 3014/3016 BKN025
     FM301600 18010KT P6SM VCTS BKN035CB
     FM302000 19009KT P6SM VCTS SCT035CB BKN080=

USA.gov is the U.S. government's official web portal to all federal, state and local government web resources and services.